createdAt,value
2019-05-19T00:01:40.652Z,99802.05
2019-05-19T00:04:05.278Z,99799.45
2019-05-19T00:06:29.860Z,99803.31
2019-05-19T00:08:54.341Z,99797.80
2019-05-19T00:11:18.853Z,99801.58
2019-05-19T00:13:43.333Z,99794.43
2019-05-19T00:16:07.862Z,99804.03
2019-05-19T00:18:32.305Z,99806.61
2019-05-19T00:20:56.756Z,99797.59
2019-05-19T00:23:21.366Z,99797.01
2019-05-19T00:25:46.649Z,99796.80
2019-05-19T00:28:12.692Z,99798.83
2019-05-19T00:30:37.159Z,99804.97
2019-05-19T00:33:01.684Z,99798.62
2019-05-19T00:35:26.172Z,99779.42
2019-05-19T00:37:50.607Z,99803.91
2019-05-19T00:40:15.163Z,99800.57
2019-05-19T00:42:39.687Z,99806.53
2019-05-19T00:45:09.061Z,99807.47
2019-05-19T00:47:33.496Z,99807.97
2019-05-19T00:49:58.097Z,99807.69
2019-05-19T00:52:22.609Z,99802.30
2019-05-19T00:54:47.080Z,99807.08
2019-05-19T00:57:12.021Z,99803.87
2019-05-19T00:59:37.514Z,99803.06
2019-05-19T01:02:01.957Z,99800.84
2019-05-19T01:04:26.488Z,99799.39
2019-05-19T01:06:50.926Z,99795.48
2019-05-19T01:09:15.464Z,99796.30
2019-05-19T01:11:39.942Z,99793.91
2019-05-19T01:14:04.854Z,99794.41
2019-05-19T01:16:29.405Z,99794.41
2019-05-19T01:18:53.849Z,99792.41
2019-05-19T01:21:18.518Z,99790.81
2019-05-19T01:23:43.088Z,99781.63
2019-05-19T01:26:07.709Z,99784.94
2019-05-19T01:28:32.155Z,99776.07
2019-05-19T01:30:56.773Z,99776.09
2019-05-19T01:33:21.207Z,99772.27
2019-05-19T01:35:45.717Z,99779.30
2019-05-19T01:38:10.240Z,99784.03
2019-05-19T01:40:34.695Z,99787.01
2019-05-19T01:42:59.213Z,99781.55
2019-05-19T01:45:23.756Z,99774.98
2019-05-19T01:47:48.211Z,99777.03
2019-05-19T01:50:18.088Z,99735.16
2019-05-19T01:52:39.457Z,99771.04
2019-05-19T01:55:05.404Z,99768.20
2019-05-19T01:57:29.917Z,99764.98
2019-05-19T01:59:54.382Z,99766.91
2019-05-19T02:02:18.860Z,99771.72
2019-05-19T02:04:43.305Z,99756.66
2019-05-19T02:07:07.838Z,99758.48
2019-05-19T02:09:32.307Z,99762.17
2019-05-19T02:11:56.762Z,99760.36
2019-05-19T02:14:21.206Z,99762.72
2019-05-19T02:16:45.675Z,99760.02
2019-05-19T02:19:10.256Z,99762.38
2019-05-19T02:21:34.720Z,99762.12
2019-05-19T02:23:59.262Z,99763.88
2019-05-19T02:26:23.719Z,99762.38
2019-05-19T02:28:48.237Z,99765.84
2019-05-19T02:31:12.760Z,99732.45
2019-05-19T02:33:37.208Z,99770.59
2019-05-19T02:36:01.729Z,99769.67
2019-05-19T02:38:26.186Z,99763.94
2019-05-19T02:40:53.709Z,99769.66
2019-05-19T02:43:18.697Z,99772.76
2019-05-19T02:45:44.116Z,99770.25
2019-05-19T02:48:11.067Z,99768.19
2019-05-19T02:50:51.777Z,99768.78
2019-05-19T02:53:04.430Z,99771.51
2019-05-19T02:55:30.807Z,99775.48
2019-05-19T02:57:56.373Z,99773.42
2019-05-19T03:00:23.866Z,99773.42
2019-05-19T03:02:48.374Z,99771.41
2019-05-19T03:05:13.439Z,99770.39
2019-05-19T03:07:41.025Z,99726.63
2019-05-19T03:10:06.988Z,99765.47
2019-05-19T03:12:31.544Z,99762.69
2019-05-19T03:14:56.063Z,99763.39
2019-05-19T03:17:20.531Z,99765.09
2019-05-19T03:19:44.970Z,99766.86
2019-05-19T03:22:09.495Z,99770.03
2019-05-19T03:24:33.933Z,99772.87
2019-05-19T03:26:58.426Z,99770.27
2019-05-19T03:29:24.526Z,99713.95
2019-05-19T03:31:50.726Z,99769.91
2019-05-19T03:34:15.304Z,99769.33
2019-05-19T03:36:39.856Z,99765.14
2019-05-19T03:39:06.444Z,99765.48
2019-05-19T03:41:31.071Z,99769.12
2019-05-19T03:43:55.530Z,99766.47
2019-05-19T03:46:20.061Z,99769.50
2019-05-19T03:48:44.493Z,99777.88
2019-05-19T03:51:09.804Z,99779.42
2019-05-19T03:53:34.267Z,99775.77
2019-05-19T03:55:58.704Z,99785.41
2019-05-19T03:58:23.172Z,99787.27
2019-05-19T04:00:47.625Z,99786.03
2019-05-19T04:03:12.086Z,99790.80
2019-05-19T04:05:36.534Z,99786.84
2019-05-19T04:08:00.999Z,99747.55
2019-05-19T04:10:25.443Z,99782.79
2019-05-19T04:12:49.996Z,99781.84
2019-05-19T04:15:14.776Z,99783.02
2019-05-19T04:17:39.342Z,99785.14
2019-05-19T04:20:04.800Z,99795.35
2019-05-19T04:22:29.355Z,99792.63
2019-05-19T04:24:53.898Z,99791.45
2019-05-19T04:27:18.456Z,99801.41
2019-05-19T04:29:42.911Z,99794.36
2019-05-19T04:32:07.426Z,99794.47
2019-05-19T04:34:32.071Z,99794.16
2019-05-19T04:36:56.552Z,99798.23
2019-05-19T04:39:20.995Z,99793.38
2019-05-19T04:41:45.480Z,99804.11
2019-05-19T04:44:09.980Z,99801.83
2019-05-19T04:46:34.411Z,99802.34
2019-05-19T04:48:59.015Z,99804.95
2019-05-19T04:51:23.470Z,99799.94
2019-05-19T04:53:47.945Z,99801.94
2019-05-19T04:56:12.385Z,99801.63
2019-05-19T04:58:36.922Z,99799.77
2019-05-19T05:01:01.356Z,99801.91
2019-05-19T05:03:25.930Z,99806.98
2019-05-19T05:05:50.672Z,99802.45
2019-05-19T05:08:28.684Z,99807.77
2019-05-19T05:10:41.426Z,99807.95
2019-05-19T05:13:05.938Z,99802.78
2019-05-19T05:15:30.531Z,99796.52
2019-05-19T05:17:55.027Z,99799.31
2019-05-19T05:20:19.616Z,99801.92
2019-05-19T05:22:44.095Z,99797.77
2019-05-19T05:25:09.318Z,99793.77
2019-05-19T05:27:33.788Z,99793.89
2019-05-19T05:29:58.294Z,99798.24
2019-05-19T05:32:22.769Z,99796.48
2019-05-19T05:34:47.363Z,99796.61
2019-05-19T05:37:11.836Z,99794.15
2019-05-19T05:39:36.300Z,99795.70
2019-05-19T05:42:00.824Z,99791.18
2019-05-19T05:44:25.290Z,99789.49
2019-05-19T05:46:49.815Z,99790.93
2019-05-19T05:49:14.308Z,99793.38
2019-05-19T05:51:38.844Z,99795.88
2019-05-19T05:54:03.381Z,99796.30
2019-05-19T05:56:27.829Z,99793.53
2019-05-19T05:58:52.322Z,99790.87
2019-05-19T06:01:16.769Z,99792.44
2019-05-19T06:03:41.322Z,99791.03
2019-05-19T06:06:05.805Z,99785.59
2019-05-19T06:08:30.348Z,99785.44
2019-05-19T06:10:54.793Z,99789.23
2019-05-19T06:13:19.451Z,99784.83
2019-05-19T06:15:43.908Z,99786.22
2019-05-19T06:18:08.465Z,99790.02
2019-05-19T06:20:32.989Z,99793.70
2019-05-19T06:22:57.893Z,99788.17
2019-05-19T06:25:22.507Z,99795.11
2019-05-19T06:27:47.011Z,99792.73
2019-05-19T06:30:11.665Z,99787.83
2019-05-19T06:32:46.767Z,99787.09
2019-05-19T06:35:11.480Z,99791.28
2019-05-19T06:37:35.950Z,99789.75
2019-05-19T06:40:00.419Z,99786.42
2019-05-19T06:42:24.877Z,99793.26
2019-05-19T06:44:49.403Z,99786.57
2019-05-19T06:47:13.848Z,99791.33
2019-05-19T06:49:38.363Z,99792.19
2019-05-19T06:52:02.821Z,99788.14
2019-05-19T06:54:27.310Z,99789.91
2019-05-19T06:56:51.760Z,99781.62
2019-05-19T06:59:16.281Z,99784.84
2019-05-19T07:01:40.753Z,99786.67
2019-05-19T07:04:05.490Z,99782.67
2019-05-19T07:06:30.014Z,99782.31
2019-05-19T07:08:54.472Z,99783.49
2019-05-19T07:11:18.941Z,99781.33
2019-05-19T07:13:43.471Z,99778.67
2019-05-19T07:16:07.906Z,99782.38
2019-05-19T07:18:32.440Z,99776.23
2019-05-19T07:20:56.877Z,99776.20
2019-05-19T07:23:28.267Z,99774.94
2019-05-19T07:25:47.530Z,99776.07
2019-05-19T07:28:12.043Z,99774.13
2019-05-19T07:30:36.598Z,99772.09
2019-05-19T07:33:01.051Z,99776.95
2019-05-19T07:35:25.527Z,99776.97
2019-05-19T07:37:50.036Z,99776.68
2019-05-19T07:40:14.831Z,99773.30
2019-05-19T07:42:39.409Z,99774.44
2019-05-19T07:45:04.534Z,99768.56
2019-05-19T07:47:29.058Z,99771.45
2019-05-19T07:49:53.521Z,99766.27
2019-05-19T07:52:17.996Z,99771.36
2019-05-19T07:54:42.481Z,99769.51
2019-05-19T07:57:06.941Z,99774.98
2019-05-19T07:59:31.463Z,99773.29
2019-05-19T08:01:55.904Z,99773.27
2019-05-19T08:04:20.375Z,99771.34
2019-05-19T08:06:44.804Z,99772.75
2019-05-19T08:09:09.315Z,99769.54
2019-05-19T08:11:34.123Z,99771.20
2019-05-19T08:13:58.660Z,99762.20
2019-05-19T08:16:23.142Z,99760.77
2019-05-19T08:18:47.654Z,99759.27
2019-05-19T08:21:12.191Z,99755.55
2019-05-19T08:23:36.647Z,99759.81
2019-05-19T08:26:01.290Z,99757.99
2019-05-19T08:28:25.818Z,99756.17
2019-05-19T08:30:50.382Z,99750.66
2019-05-19T08:33:14.825Z,99763.70
2019-05-19T08:35:39.377Z,99757.06
2019-05-19T08:38:03.886Z,99754.29
2019-05-19T08:40:28.363Z,99755.83
2019-05-19T08:42:52.809Z,99754.50
2019-05-19T08:45:17.417Z,99756.17
2019-05-19T08:47:41.874Z,99747.19
2019-05-19T08:50:07.385Z,99744.03
2019-05-19T08:52:31.885Z,99750.16
2019-05-19T08:54:56.420Z,99750.54
2019-05-19T08:57:20.902Z,99743.98
2019-05-19T08:59:45.347Z,99739.80
2019-05-19T09:02:09.814Z,99743.44
2019-05-19T09:04:34.268Z,99745.43
2019-05-19T09:06:58.751Z,99741.55
2019-05-19T09:09:23.269Z,99740.05
2019-05-19T09:11:48.069Z,99740.70
2019-05-19T09:14:12.611Z,99735.84
2019-05-19T09:16:37.133Z,99738.89
2019-05-19T09:19:01.578Z,99738.92
2019-05-19T09:21:26.165Z,99732.10
2019-05-19T09:23:50.682Z,99733.39
2019-05-19T09:26:15.155Z,99728.83
2019-05-19T09:28:39.733Z,99726.41
2019-05-19T09:31:04.317Z,99722.81
2019-05-19T09:33:28.763Z,99719.66
2019-05-19T09:35:53.207Z,99722.03
2019-05-19T09:38:17.750Z,99715.70
2019-05-19T09:40:42.184Z,99712.41
2019-05-19T09:43:06.645Z,99684.30
2019-05-19T09:45:31.245Z,99709.91
2019-05-19T09:47:55.714Z,99705.98
2019-05-19T09:50:20.605Z,99703.05
2019-05-19T09:52:45.129Z,99703.05
2019-05-19T09:55:09.942Z,99710.06
2019-05-19T09:57:34.562Z,99702.91
2019-05-19T09:59:59.110Z,99705.22
2019-05-19T10:02:23.745Z,99702.77
2019-05-19T10:04:48.177Z,99693.25
2019-05-19T10:07:12.860Z,99695.11
2019-05-19T10:09:47.764Z,99699.19
2019-05-19T10:12:12.244Z,99695.22
2019-05-19T10:14:36.805Z,99693.28
2019-05-19T10:17:01.657Z,99699.72
2019-05-19T10:19:26.337Z,99698.08
2019-05-19T10:21:50.972Z,99696.23
2019-05-19T10:24:15.479Z,99687.11
2019-05-19T10:26:40.052Z,99686.78
2019-05-19T10:29:04.592Z,99691.13
2019-05-19T10:31:29.042Z,99692.41
2019-05-19T10:33:53.539Z,99666.44
2019-05-19T10:36:18.481Z,99685.59
2019-05-19T10:38:43.047Z,99679.55
2019-05-19T10:41:07.486Z,99670.58
2019-05-19T10:43:32.033Z,99673.25
2019-05-19T10:46:02.185Z,99669.70
2019-05-19T10:48:26.974Z,99678.30
2019-05-19T10:50:51.467Z,99670.95
2019-05-19T10:53:15.941Z,99666.20
2019-05-19T10:55:40.427Z,99671.14
2019-05-19T10:58:04.963Z,99661.64
2019-05-19T11:00:29.513Z,99664.16
2019-05-19T11:02:53.977Z,99658.17
2019-05-19T11:05:18.547Z,99669.12
2019-05-19T11:07:43.187Z,99672.38
2019-05-19T11:10:08.070Z,99667.15
2019-05-19T11:12:32.587Z,99662.66
2019-05-19T11:14:57.048Z,99650.13
2019-05-19T11:17:21.553Z,99658.58
2019-05-19T11:19:46.016Z,99657.59
2019-05-19T11:22:10.453Z,99658.04
2019-05-19T11:24:34.906Z,99658.02
2019-05-19T11:26:59.416Z,99652.31
2019-05-19T11:29:23.933Z,99652.11
2019-05-19T11:31:48.370Z,99651.17
2019-05-19T11:34:12.924Z,99658.09
2019-05-19T11:36:37.524Z,99657.58
2019-05-19T11:39:02.067Z,99659.05
2019-05-19T11:41:26.502Z,99653.62
2019-05-19T11:43:51.066Z,99648.14
2019-05-19T11:46:15.514Z,99646.67
2019-05-19T11:48:40.604Z,99643.49
2019-05-19T11:51:05.046Z,99646.80
2019-05-19T11:53:29.582Z,99651.13
2019-05-19T11:56:05.810Z,99648.27
2019-05-19T11:58:20.479Z,99640.06
2019-05-19T12:00:45.017Z,99642.34
2019-05-19T12:03:09.628Z,99636.13
2019-05-19T12:05:34.453Z,99636.70
2019-05-19T12:07:59.060Z,99628.80
2019-05-19T12:10:23.659Z,99634.27
2019-05-19T12:12:48.093Z,99634.23
2019-05-19T12:15:12.902Z,99642.23
2019-05-19T12:17:37.353Z,99610.14
2019-05-19T12:20:01.916Z,99638.36
2019-05-19T12:22:26.363Z,99630.48
2019-05-19T12:24:50.886Z,99633.66
2019-05-19T12:27:17.632Z,99632.30
2019-05-19T12:29:42.172Z,99634.53
2019-05-19T12:32:06.629Z,99634.41
2019-05-19T12:34:31.149Z,99634.83
2019-05-19T12:36:55.592Z,99629.77
2019-05-19T12:39:20.082Z,99629.91
2019-05-19T12:41:44.599Z,99627.34
2019-05-19T12:44:09.104Z,99626.91
2019-05-19T12:46:33.570Z,99630.41
2019-05-19T12:48:58.012Z,99617.55
2019-05-19T12:51:22.637Z,99629.70
2019-05-19T12:53:47.272Z,99619.66
2019-05-19T12:56:11.840Z,99615.61
2019-05-19T12:58:36.268Z,99622.85
2019-05-19T13:01:00.754Z,99614.24
2019-05-19T13:03:25.199Z,99615.44
2019-05-19T13:05:49.750Z,99605.92
2019-05-19T13:08:14.173Z,99603.83
2019-05-19T13:10:38.719Z,99598.92
2019-05-19T13:13:03.161Z,99601.48
2019-05-19T13:15:27.822Z,99598.15
2019-05-19T13:17:52.592Z,99594.56
2019-05-19T13:20:17.270Z,99593.94
2019-05-19T13:22:41.727Z,99592.11
2019-05-19T13:25:06.825Z,99591.41
2019-05-19T13:27:31.347Z,99586.36
2019-05-19T13:29:55.901Z,99591.69
2019-05-19T13:32:20.502Z,99586.78
2019-05-19T13:34:44.971Z,99587.29
2019-05-19T13:37:09.450Z,99586.12
2019-05-19T13:39:33.948Z,99585.23
2019-05-19T13:41:58.421Z,99588.27
2019-05-19T13:44:22.858Z,99577.81
2019-05-19T13:46:47.347Z,99579.25
2019-05-19T13:49:11.811Z,99579.41
2019-05-19T13:51:36.432Z,99581.42
2019-05-19T13:54:00.918Z,99573.29
2019-05-19T13:56:25.473Z,99578.14
2019-05-19T13:58:49.960Z,99575.03
2019-05-19T14:01:27.675Z,99580.75
2019-05-19T14:03:40.546Z,99575.23
2019-05-19T14:06:05.065Z,99575.02
2019-05-19T14:08:29.597Z,99572.51
2019-05-19T14:10:54.059Z,99567.86
2019-05-19T14:13:18.498Z,99571.58
2019-05-19T14:15:43.103Z,99565.28
2019-05-19T14:18:07.540Z,99564.34
2019-05-19T14:20:32.096Z,99552.83
2019-05-19T14:22:56.651Z,99559.87
2019-05-19T14:25:21.136Z,99550.66
2019-05-19T14:27:45.715Z,99551.86
2019-05-19T14:30:10.888Z,99554.84
2019-05-19T14:32:35.358Z,99552.22
2019-05-19T14:34:59.869Z,99545.78
2019-05-19T14:37:24.366Z,99552.79
2019-05-19T14:39:48.799Z,99547.77
2019-05-19T14:42:14.907Z,99548.20
2019-05-19T14:44:39.335Z,99549.38
2019-05-19T14:47:03.944Z,99551.64
2019-05-19T14:49:28.404Z,99554.38
2019-05-19T14:51:52.941Z,99545.85
2019-05-19T14:54:17.578Z,99541.04
2019-05-19T14:56:42.162Z,99544.66
2019-05-19T14:59:06.607Z,99542.79
2019-05-19T15:01:31.180Z,99543.45
2019-05-19T15:03:55.681Z,99547.13
2019-05-19T15:06:20.224Z,99542.41
2019-05-19T15:08:44.692Z,99537.83
2019-05-19T15:11:09.174Z,99513.32
2019-05-19T15:13:33.678Z,99543.23
2019-05-19T15:15:58.216Z,99544.05
2019-05-19T15:18:22.730Z,99544.31
2019-05-19T15:20:47.180Z,99538.89
2019-05-19T15:23:11.646Z,99543.55
2019-05-19T15:25:36.081Z,99544.25
2019-05-19T15:28:04.858Z,99545.16
2019-05-19T15:30:26.850Z,99540.88
2019-05-19T15:32:51.371Z,99544.91
2019-05-19T15:35:16.007Z,99537.78
2019-05-19T15:37:40.529Z,99535.67
2019-05-19T15:40:08.385Z,99528.78
2019-05-19T15:42:32.930Z,99527.84
2019-05-19T15:44:57.404Z,99524.50
2019-05-19T15:47:21.896Z,99520.13
2019-05-19T15:49:46.418Z,99517.59
2019-05-19T15:52:11.035Z,99522.03
2019-05-19T15:54:35.487Z,99517.06
2019-05-19T15:56:59.960Z,99513.78
2019-05-19T15:59:24.515Z,99515.23
2019-05-19T16:01:49.168Z,99507.41
2019-05-19T16:04:13.749Z,99506.73
2019-05-19T16:06:39.126Z,99496.31
2019-05-19T16:09:05.577Z,99498.58
2019-05-19T16:11:29.996Z,99495.64
2019-05-19T16:13:54.652Z,99496.16
2019-05-19T16:16:19.440Z,99493.64
2019-05-19T16:18:43.892Z,99491.70
2019-05-19T16:21:08.320Z,99494.38
2019-05-19T16:23:32.923Z,99487.75
2019-05-19T16:25:57.364Z,99493.72
2019-05-19T16:28:30.303Z,99487.25
2019-05-19T16:30:48.126Z,99491.27
2019-05-19T16:33:12.959Z,99488.59
2019-05-19T16:35:37.397Z,99494.66
2019-05-19T16:38:01.888Z,99490.95
2019-05-19T16:40:26.396Z,99496.51
2019-05-19T16:42:51.067Z,99493.30
2019-05-19T16:45:16.161Z,99492.63
2019-05-19T16:47:40.666Z,99493.23
2019-05-19T16:50:07.200Z,99485.39
2019-05-19T16:52:31.679Z,99486.56
2019-05-19T16:55:13.796Z,99484.81
2019-05-19T16:57:38.299Z,99487.92
2019-05-19T17:00:02.890Z,99486.56
2019-05-19T17:02:27.342Z,99487.75
2019-05-19T17:04:51.838Z,99480.26
2019-05-19T17:07:16.314Z,99481.20
2019-05-19T17:09:40.760Z,99482.90
2019-05-19T17:12:06.901Z,99472.63
2019-05-19T17:14:31.579Z,99472.44
2019-05-19T17:16:56.031Z,99477.25
2019-05-19T17:19:20.551Z,99474.33
2019-05-19T17:21:44.985Z,99473.47
2019-05-19T17:24:09.523Z,99475.66
2019-05-19T17:26:34.048Z,99478.35
2019-05-19T17:29:00.949Z,99476.52
2019-05-19T17:31:25.721Z,99475.80
2019-05-19T17:33:50.327Z,99467.63
2019-05-19T17:36:14.786Z,99465.47
2019-05-19T17:38:39.384Z,99468.72
2019-05-19T17:41:03.857Z,99462.74
2019-05-19T17:43:28.309Z,99466.26
2019-05-19T17:45:52.868Z,99466.92
2019-05-19T17:48:26.135Z,99472.94
2019-05-19T17:50:43.665Z,99472.22
2019-05-19T17:53:08.197Z,99475.57
2019-05-19T17:55:34.672Z,99473.41
2019-05-19T17:58:01.402Z,99477.67
2019-05-19T18:00:40.645Z,99476.48
2019-05-19T18:03:06.310Z,99474.44
2019-05-19T18:05:30.900Z,99480.97
2019-05-19T18:07:55.324Z,99484.22
2019-05-19T18:10:19.853Z,99489.14
2019-05-19T18:12:44.359Z,99486.42
2019-05-19T18:15:09.065Z,99491.05
2019-05-19T18:17:33.510Z,99498.61
2019-05-19T18:19:57.996Z,99495.05
2019-05-19T18:22:22.537Z,99501.34
2019-05-19T18:24:47.012Z,99501.72
2019-05-19T18:27:11.561Z,99504.34
2019-05-19T18:29:36.107Z,99504.70
2019-05-19T18:32:00.550Z,99508.56
2019-05-19T18:34:25.004Z,99511.88
2019-05-19T18:36:49.463Z,99514.88
2019-05-19T18:39:13.970Z,99518.06
2019-05-19T18:41:38.559Z,99521.91
2019-05-19T18:44:03.081Z,99526.44
2019-05-19T18:46:27.690Z,99527.97
2019-05-19T18:48:52.271Z,99531.18
2019-05-19T18:51:16.746Z,99534.48
2019-05-19T18:53:41.364Z,99535.73
2019-05-19T18:56:05.836Z,99536.68
2019-05-19T18:58:30.548Z,99540.17
2019-05-19T19:00:55.221Z,99545.95
2019-05-19T19:03:19.818Z,99546.13
2019-05-19T19:05:44.439Z,99554.45
2019-05-19T19:08:08.949Z,99542.66
2019-05-19T19:10:33.567Z,99551.55
2019-05-19T19:12:58.182Z,99548.92
2019-05-19T19:15:22.798Z,99551.30
2019-05-19T19:17:47.337Z,99555.98
2019-05-19T19:20:12.477Z,99556.64
2019-05-19T19:22:37.034Z,99558.30
2019-05-19T19:25:03.015Z,99562.77
2019-05-19T19:27:27.488Z,99557.90
2019-05-19T19:30:02.872Z,99557.90
2019-05-19T19:32:18.079Z,99561.16
2019-05-19T19:34:42.531Z,99560.59
2019-05-19T19:37:07.189Z,99566.27
2019-05-19T19:39:31.783Z,99566.34
2019-05-19T19:41:56.276Z,99561.91
2019-05-19T19:44:20.795Z,99560.44
2019-05-19T19:46:45.262Z,99565.94
2019-05-19T19:49:09.782Z,99567.37
2019-05-19T19:51:34.326Z,99567.37
2019-05-19T19:53:58.774Z,99572.20
2019-05-19T19:56:23.423Z,99579.10
2019-05-19T19:58:48.651Z,99573.81
2019-05-19T20:01:13.224Z,99572.50
2019-05-19T20:03:40.307Z,99572.78
2019-05-19T20:06:03.971Z,99574.77
2019-05-19T20:08:28.476Z,99574.77
2019-05-19T20:10:53.027Z,99582.06
2019-05-19T20:13:17.483Z,99586.30
2019-05-19T20:15:41.935Z,99582.86
2019-05-19T20:18:06.647Z,99582.86
2019-05-19T20:20:31.343Z,99597.89
2019-05-19T20:22:55.797Z,99600.86
2019-05-19T20:25:20.227Z,99594.73
2019-05-19T20:27:44.770Z,99594.16
2019-05-19T20:30:09.448Z,99603.90
2019-05-19T20:32:33.995Z,99601.83
2019-05-19T20:34:58.516Z,99599.30
2019-05-19T20:37:23.088Z,99592.56
2019-05-19T20:39:47.525Z,99603.36
2019-05-19T20:42:12.020Z,99602.39
2019-05-19T20:44:36.467Z,99600.86
2019-05-19T20:47:00.983Z,99611.33
2019-05-19T20:49:25.581Z,99613.41
2019-05-19T20:51:50.017Z,99608.81
2019-05-19T20:54:14.606Z,99610.56
2019-05-19T20:56:39.142Z,99607.84
2019-05-19T20:59:03.759Z,99614.81
2019-05-19T21:01:28.202Z,99609.92
2019-05-19T21:03:52.745Z,99617.09
2019-05-19T21:06:17.183Z,99610.67
2019-05-19T21:08:41.757Z,99613.20
2019-05-19T21:11:06.191Z,99609.36
2019-05-19T21:13:30.719Z,99611.31
2019-05-19T21:15:55.148Z,99609.35
2019-05-19T21:18:19.611Z,99615.34
2019-05-19T21:20:44.215Z,99610.11
2019-05-19T21:23:08.691Z,99613.81
2019-05-19T21:25:33.288Z,99608.92
2019-05-19T21:27:57.760Z,99607.72
2019-05-19T21:30:22.220Z,99615.60
2019-05-19T21:32:46.699Z,99617.02
2019-05-19T21:35:11.319Z,99617.52
2019-05-19T21:37:35.868Z,99611.02
2019-05-19T21:40:00.391Z,99582.31
2019-05-19T21:42:25.210Z,99605.17
2019-05-19T21:44:49.645Z,99607.37
2019-05-19T21:47:14.265Z,99613.66
2019-05-19T21:49:38.755Z,99617.67
2019-05-19T21:52:03.364Z,99606.71
2019-05-19T21:54:28.653Z,99613.52
2019-05-19T21:56:53.442Z,99621.09
2019-05-19T21:59:17.984Z,99624.88
2019-05-19T22:01:43.100Z,99612.25
2019-05-19T22:04:08.088Z,99609.22
2019-05-19T22:06:34.340Z,99606.80
2019-05-19T22:08:58.796Z,99613.02
2019-05-19T22:11:23.529Z,99613.14
2019-05-19T22:13:48.333Z,99609.63
2019-05-19T22:16:13.961Z,99615.57
2019-05-19T22:18:38.592Z,99617.88
2019-05-19T22:21:04.506Z,99618.40
2019-05-19T22:23:29.359Z,99614.33
2019-05-19T22:25:54.262Z,99614.38
2019-05-19T22:28:18.804Z,99611.25
2019-05-19T22:30:43.334Z,99608.58
2019-05-19T22:33:07.913Z,99606.37
2019-05-19T22:35:32.549Z,99601.55
2019-05-19T22:37:57.010Z,99611.54
2019-05-19T22:40:21.590Z,99606.44
2019-05-19T22:42:48.957Z,99602.91
2019-05-19T22:45:13.684Z,99606.94
2019-05-19T22:47:38.143Z,99604.63
2019-05-19T22:50:02.774Z,99602.26
2019-05-19T22:52:27.285Z,99607.58
2019-05-19T22:54:51.820Z,99611.81
2019-05-19T22:57:18.022Z,99611.55
2019-05-19T22:59:42.528Z,99604.04
2019-05-19T23:02:09.249Z,99602.05
2019-05-19T23:04:33.317Z,99600.05
2019-05-19T23:06:57.846Z,99600.96
2019-05-19T23:09:22.313Z,99604.73
2019-05-19T23:11:46.786Z,99595.77
2019-05-19T23:14:11.270Z,99598.80
2019-05-19T23:16:35.713Z,99564.19
2019-05-19T23:19:00.273Z,99599.32
2019-05-19T23:21:24.874Z,99597.33
2019-05-19T23:23:49.360Z,99592.50
2019-05-19T23:26:13.910Z,99593.22
2019-05-19T23:28:38.359Z,99587.22
2019-05-19T23:31:02.913Z,99588.45
2019-05-19T23:33:27.384Z,99587.17
2019-05-19T23:35:51.881Z,99589.59
2019-05-19T23:38:16.394Z,99585.92
2019-05-19T23:40:40.938Z,99582.53
2019-05-19T23:43:05.667Z,99583.69
2019-05-19T23:45:30.198Z,99583.45
2019-05-19T23:47:54.729Z,99579.23
2019-05-19T23:50:19.317Z,99576.69
2019-05-19T23:52:43.734Z,99565.12
2019-05-19T23:55:08.871Z,99573.22
2019-05-19T23:57:33.541Z,99568.89
2019-05-19T23:59:57.981Z,99575.58
